createdAt,value
2022-12-04T00:09:21.970Z,35.53
2022-12-04T00:19:24.079Z,40.30
2022-12-04T00:29:26.148Z,24.93
2022-12-04T00:39:30.675Z,35.87
2022-12-04T00:49:33.037Z,35.13
2022-12-04T00:59:35.000Z,34.03
2022-12-04T01:09:38.078Z,37.20
2022-12-04T01:19:42.239Z,39.63
2022-12-04T01:29:47.056Z,16.70
2022-12-04T01:39:51.460Z,34.50
2022-12-04T01:49:53.855Z,31.03
2022-12-04T02:00:00.804Z,31.20
2022-12-04T02:10:06.560Z,28.53
2022-12-04T02:20:24.095Z,30.67
2022-12-04T02:30:35.592Z,30.50
2022-12-04T02:40:57.365Z,28.20
2022-12-04T02:51:01.205Z,18.90
2022-12-04T03:01:19.739Z,30.53
2022-12-04T03:11:22.127Z,23.33
2022-12-04T03:21:28.658Z,26.70
2022-12-04T03:31:40.595Z,24.63
2022-12-04T03:42:00.030Z,28.23
2022-12-04T03:52:11.017Z,20.40
2022-12-04T04:02:18.698Z,19.87
2022-12-04T04:12:23.189Z,23.77
2022-12-04T04:22:54.499Z,22.33
2022-12-04T04:33:16.258Z,24.20
2022-12-04T04:43:19.291Z,22.00
2022-12-04T04:53:29.616Z,22.07
2022-12-04T05:03:32.398Z,26.20
2022-12-04T05:13:36.787Z,21.80
2022-12-04T05:23:43.403Z,22.73
2022-12-04T05:33:45.445Z,27.40
2022-12-04T05:43:54.941Z,23.70
2022-12-04T05:54:02.459Z,20.87
2022-12-04T06:04:04.619Z,22.50
2022-12-04T06:14:12.885Z,21.37
2022-12-04T06:24:18.459Z,21.07
2022-12-04T06:34:20.596Z,15.23
2022-12-04T06:44:22.571Z,23.20
2022-12-04T06:54:24.543Z,18.90
2022-12-04T07:04:29.055Z,20.87
2022-12-04T07:14:31.105Z,20.77
2022-12-04T07:24:35.353Z,21.97
2022-12-04T07:34:39.821Z,24.17
2022-12-04T07:44:41.931Z,20.80
2022-12-04T07:54:47.134Z,20.67
2022-12-04T08:04:49.230Z,20.40
2022-12-04T08:14:54.732Z,19.80
2022-12-04T08:24:56.768Z,19.77
2022-12-04T08:34:59.283Z,20.47
2022-12-04T08:45:01.296Z,21.43
2022-12-04T08:55:08.402Z,19.57
2022-12-04T09:05:15.199Z,17.57
2022-12-04T09:15:17.740Z,20.37
2022-12-04T09:25:22.195Z,26.83
2022-12-04T09:35:24.331Z,15.03
2022-12-04T09:45:29.036Z,14.13
2022-12-04T09:55:41.553Z,20.70
2022-12-04T10:06:02.448Z,23.00
2022-12-04T10:16:22.805Z,17.37
2022-12-04T10:26:31.223Z,19.57
2022-12-04T10:36:34.675Z,17.30
2022-12-04T10:46:45.541Z,17.83
2022-12-04T10:56:58.919Z,18.30
2022-12-04T11:07:22.338Z,16.43
2022-12-04T11:17:24.363Z,21.97
2022-12-04T11:27:31.790Z,16.00
2022-12-04T11:37:43.639Z,19.63
2022-12-04T11:47:57.349Z,17.60
2022-12-04T11:58:16.088Z,20.53
2022-12-04T12:08:26.361Z,21.37
2022-12-04T12:18:51.172Z,21.40
2022-12-04T12:29:20.725Z,11.37
2022-12-04T12:39:26.868Z,17.60
2022-12-04T12:49:34.970Z,22.27
2022-12-04T12:59:42.780Z,19.93
2022-12-04T13:09:57.049Z,23.03
2022-12-04T13:20:09.966Z,19.53
2022-12-04T13:30:21.358Z,19.40
2022-12-04T13:40:39.876Z,21.27
2022-12-04T13:50:42.067Z,18.97
2022-12-04T14:00:46.489Z,17.63
2022-12-04T14:11:07.424Z,19.57
2022-12-04T14:21:12.320Z,22.27
2022-12-04T14:31:36.034Z,16.17
2022-12-04T14:41:39.005Z,14.03
2022-12-04T14:52:07.265Z,17.57
2022-12-04T15:02:16.850Z,15.60
2022-12-04T15:12:37.171Z,18.70
2022-12-04T15:22:41.659Z,20.63
2022-12-04T15:32:44.055Z,18.33
2022-12-04T15:42:46.258Z,15.70
2022-12-04T15:53:06.596Z,18.63
2022-12-04T16:03:28.492Z,19.43
2022-12-04T16:13:38.794Z,20.37
2022-12-04T16:23:41.949Z,17.93
2022-12-04T16:33:46.843Z,12.70
2022-12-04T16:43:58.315Z,17.27
2022-12-04T16:54:00.474Z,18.00
2022-12-04T17:04:02.488Z,17.43
2022-12-04T17:14:07.690Z,23.13
2022-12-04T17:24:09.803Z,18.03
2022-12-04T17:34:16.742Z,19.20
2022-12-04T17:44:21.299Z,19.07
2022-12-04T17:54:25.861Z,15.20
2022-12-04T18:04:28.051Z,16.13
2022-12-04T18:14:32.695Z,15.17
2022-12-04T18:24:37.049Z,15.87
2022-12-04T18:34:39.096Z,15.87
2022-12-04T18:44:43.586Z,15.43
2022-12-04T18:54:45.740Z,15.90
2022-12-04T19:04:50.187Z,14.17
2022-12-04T19:14:52.437Z,14.67
2022-12-04T19:24:58.930Z,15.57
2022-12-04T19:35:03.559Z,15.13
2022-12-04T19:45:06.054Z,17.73
2022-12-04T19:55:10.307Z,15.43
2022-12-04T20:05:12.410Z,16.10
2022-12-04T20:15:17.319Z,15.23
2022-12-04T20:25:19.420Z,18.80
2022-12-04T20:35:23.775Z,16.53
2022-12-04T20:45:31.123Z,20.17
2022-12-04T20:55:40.521Z,16.27
2022-12-04T21:05:50.695Z,16.60
2022-12-04T21:16:01.873Z,16.77
2022-12-04T21:26:04.013Z,18.27
2022-12-04T21:36:12.398Z,10.57
2022-12-04T21:46:14.676Z,15.50
2022-12-04T21:56:16.667Z,14.47
2022-12-04T22:06:22.491Z,13.63
2022-12-04T22:16:30.688Z,17.53
2022-12-04T22:26:35.602Z,14.17
2022-12-04T22:36:39.853Z,13.67
2022-12-04T22:46:42.113Z,15.10
2022-12-04T22:56:44.395Z,13.47
2022-12-04T23:06:46.419Z,16.00
2022-12-04T23:16:49.486Z,19.27
2022-12-04T23:26:51.625Z,14.83
2022-12-04T23:36:56.181Z,17.67
2022-12-04T23:47:03.572Z,15.00
2022-12-04T23:57:08.082Z,12.87
